Time;durP1;ratioP1;P1;durP2;ratioP2;P2;SDS_P1;SDS_P2;PMS_P1;PMS_P2;Temp;Humidity;BMP_temperature;BMP_pressure;BME280_temperature;BME280_humidity;BME280_pressure;Samples;Min_cycle;Max_cycle;Signal;HPM_P1;HPM_P2
2024/01/05 00:00:02;;;;;;;10.07;4.78;;;5.10;99.90;;;;;;5091824;28;20075;-89
2024/01/05 00:02:27;;;;;;;11.95;3.97;;;5.10;99.90;;;;;;5091834;28;20097;-89
2024/01/05 00:04:53;;;;;;;23.05;4.95;;;5.10;99.90;;;;;;5091241;28;20071;-89
2024/01/05 00:07:18;;;;;;;10.65;3.67;;;5.10;99.90;;;;;;5074469;28;20051;-89
2024/01/05 00:09:44;;;;;;;8.05;2.90;;;5.10;99.90;;;;;;5074810;28;20590;-89
2024/01/05 00:12:10;;;;;;;13.77;5.05;;;5.10;99.90;;;;;;5074759;28;20504;-88
2024/01/05 00:14:38;;;;;;;14.15;5.68;;;5.10;99.90;;;;;;5074574;28;20110;-89
2024/01/05 00:17:05;;;;;;;15.25;4.15;;;5.10;99.90;;;;;;5074814;28;20039;-88
2024/01/05 00:19:30;;;;;;;9.63;3.75;;;5.10;99.90;;;;;;5075156;28;20036;-88
2024/01/05 00:21:56;;;;;;;9.02;3.75;;;5.10;99.90;;;;;;5094140;28;20045;-88
2024/01/05 00:24:22;;;;;;;14.80;4.20;;;5.10;99.90;;;;;;5082604;28;20048;-89
2024/01/05 00:26:47;;;;;;;12.02;4.13;;;5.00;99.90;;;;;;5075968;28;20410;-88
2024/01/05 00:29:13;;;;;;;9.30;4.03;;;5.00;99.90;;;;;;5091283;28;20415;-88
2024/01/05 00:31:39;;;;;;;17.15;5.47;;;5.00;99.90;;;;;;5074311;28;20407;-88
2024/01/05 00:34:05;;;;;;;12.85;4.78;;;5.00;99.90;;;;;;5090813;28;20051;-88
2024/01/05 00:36:30;;;;;;;15.82;4.28;;;5.00;99.90;;;;;;5090885;28;20032;-88
2024/01/05 00:38:56;;;;;;;13.15;3.28;;;5.00;99.90;;;;;;5074393;28;20043;-88
2024/01/05 00:41:21;;;;;;;10.85;3.78;;;5.00;99.90;;;;;;5091470;28;20568;-89
2024/01/05 00:43:47;;;;;;;14.05;4.13;;;5.00;99.90;;;;;;5091094;28;20504;-88
2024/01/05 00:46:13;;;;;;;13.93;4.47;;;5.00;99.90;;;;;;5073866;28;20044;-89
2024/01/05 00:48:38;;;;;;;10.43;3.80;;;4.90;99.90;;;;;;5074133;28;20384;-89
2024/01/05 00:51:04;;;;;;;9.32;3.53;;;4.90;99.90;;;;;;5090586;28;20058;-88
2024/01/05 00:53:30;;;;;;;13.18;5.10;;;4.90;99.90;;;;;;5074032;28;20119;-88
2024/01/05 00:55:55;;;;;;;12.45;5.30;;;4.90;99.90;;;;;;5074052;28;20506;-88
2024/01/05 00:58:21;;;;;;;12.52;4.47;;;4.90;99.90;;;;;;5074015;28;20128;-88
2024/01/05 01:00:47;;;;;;;12.18;4.47;;;4.90;99.90;;;;;;5073940;28;20071;-89
2024/01/05 01:03:12;;;;;;;15.95;4.18;;;4.90;99.90;;;;;;5090348;28;20062;-88
2024/01/05 01:05:38;;;;;;;13.02;3.67;;;4.90;99.90;;;;;;5073726;28;20040;-88
2024/01/05 01:08:04;;;;;;;9.70;4.53;;;4.90;99.90;;;;;;5073579;28;20075;-88
2024/01/05 01:10:29;;;;;;;8.30;3.60;;;4.90;99.90;;;;;;5073752;28;20039;-88
2024/01/05 01:12:55;;;;;;;8.82;3.47;;;4.90;99.90;;;;;;5073797;28;20036;-87
2024/01/05 01:15:21;;;;;;;11.07;3.88;;;4.90;99.90;;;;;;5073316;28;20514;-88
2024/01/05 01:17:46;;;;;;;14.55;5.00;;;4.90;99.90;;;;;;5090147;28;20039;-88
2024/01/05 01:20:12;;;;;;;12.82;5.00;;;4.90;99.90;;;;;;5073309;28;20113;-88
2024/01/05 01:22:38;;;;;;;12.20;4.97;;;4.90;99.90;;;;;;5073563;28;20486;-88
2024/01/05 01:25:04;;;;;;;12.60;4.35;;;4.90;99.90;;;;;;5073103;28;20506;-88
2024/01/05 01:27:30;;;;;;;11.10;3.70;;;4.90;99.90;;;;;;5073477;28;20032;-88
2024/01/05 01:29:55;;;;;;;10.07;4.00;;;4.90;99.90;;;;;;5073212;28;20097;-88
2024/01/05 01:32:21;;;;;;;12.32;3.20;;;4.80;99.90;;;;;;5073230;28;20054;-88
2024/01/05 01:34:47;;;;;;;12.00;4.55;;;4.90;99.90;;;;;;5089868;28;20458;-88
2024/01/05 01:37:12;;;;;;;9.23;3.75;;;4.90;99.90;;;;;;5089885;28;20036;-88
2024/01/05 01:39:38;;;;;;;10.50;4.18;;;4.90;99.90;;;;;;5090207;28;20036;-88
2024/01/05 01:42:04;;;;;;;12.30;4.65;;;4.90;99.90;;;;;;5073668;28;20036;-88
2024/01/05 01:44:30;;;;;;;11.05;4.30;;;4.90;99.90;;;;;;5072363;28;20511;-88
2024/01/05 01:46:56;;;;;;;11.27;4.38;;;4.90;99.90;;;;;;5073131;28;20074;-88
2024/01/05 01:49:23;;;;;;;10.50;4.55;;;4.90;99.90;;;;;;5073010;28;20048;-88
2024/01/05 01:51:49;;;;;;;12.52;4.65;;;4.80;99.90;;;;;;5072565;28;20483;-88
2024/01/05 01:54:16;;;;;;;13.80;3.35;;;4.80;99.90;;;;;;5080702;28;20541;-88
2024/01/05 01:56:44;;;;;;;11.10;4.90;;;4.80;99.90;;;;;;5072938;28;20040;-88
2024/01/05 01:59:10;;;;;;;11.05;4.65;;;4.80;99.90;;;;;;5090308;28;20036;-88
2024/01/05 02:01:36;;;;;;;9.20;4.05;;;4.80;99.90;;;;;;5089596;28;20043;-88
2024/01/05 02:04:03;;;;;;;10.90;3.75;;;4.80;99.90;;;;;;5072635;28;20043;-88
2024/01/05 02:06:29;;;;;;;10.93;3.70;;;4.80;99.90;;;;;;5053909;28;20090;-88
2024/01/05 02:08:55;;;;;;;11.13;4.80;;;4.80;99.90;;;;;;5052777;28;20040;-88
2024/01/05 02:11:21;;;;;;;9.45;3.80;;;4.80;99.90;;;;;;5069369;28;20631;-88
2024/01/05 02:13:48;;;;;;;10.43;4.10;;;4.80;99.90;;;;;;5073909;28;20062;-88
2024/01/05 02:16:14;;;;;;;10.50;4.75;;;4.80;99.90;;;;;;5072939;28;20059;-89
2024/01/05 02:18:40;;;;;;;13.52;3.97;;;4.80;99.90;;;;;;5072754;28;20081;-88
2024/01/05 02:21:08;;;;;;;11.18;3.60;;;4.80;99.90;;;;;;5072783;28;20036;-88
2024/01/05 02:23:34;;;;;;;11.70;4.55;;;4.80;99.90;;;;;;5072509;28;20083;-88
2024/01/05 02:26:03;;;;;;;12.60;4.32;;;4.80;99.90;;;;;;5072727;28;20546;-88
2024/01/05 02:28:28;;;;;;;12.13;4.88;;;4.80;99.90;;;;;;5072706;28;20090;-89
2024/01/05 02:30:55;;;;;;;10.27;4.43;;;4.80;99.90;;;;;;5075796;28;20043;-89
2024/01/05 02:33:21;;;;;;;10.27;4.30;;;4.80;99.90;;;;;;5076283;28;20043;-89
2024/01/05 02:35:47;;;;;;;10.23;3.97;;;4.80;99.90;;;;;;5076843;28;20043;-89
2024/01/05 02:38:12;;;;;;;10.48;4.22;;;4.90;99.90;;;;;;5093593;28;20063;-89
2024/01/05 02:40:38;;;;;;;9.48;3.28;;;4.90;99.90;;;;;;5077018;28;20048;-89
2024/01/05 02:43:04;;;;;;;9.07;4.22;;;4.80;99.90;;;;;;5076270;28;20415;-89
2024/01/05 02:45:30;;;;;;;15.95;4.47;;;4.90;99.90;;;;;;5080909;28;20165;-88
2024/01/05 02:47:55;;;;;;;8.02;3.13;;;4.80;99.90;;;;;;5077432;28;20538;-87
2024/01/05 02:50:21;;;;;;;10.55;3.35;;;4.80;99.90;;;;;;5086314;28;20042;-87
2024/01/05 02:52:47;;;;;;;13.15;4.45;;;4.80;99.90;;;;;;5077608;28;20028;-88
2024/01/05 02:55:13;;;;;;;13.82;4.75;;;4.90;99.90;;;;;;5094032;28;20051;-88
2024/01/05 02:57:39;;;;;;;12.57;4.53;;;4.90;99.90;;;;;;5079653;28;20067;-88
2024/01/05 03:00:06;;;;;;;11.65;4.40;;;4.80;99.90;;;;;;5095508;28;20032;-89
2024/01/05 03:02:32;;;;;;;12.05;3.90;;;4.90;99.90;;;;;;5060316;28;20080;-88
2024/01/05 03:04:58;;;;;;;11.32;4.53;;;4.90;99.90;;;;;;5076157;28;20082;-88
2024/01/05 03:07:24;;;;;;;10.63;4.43;;;4.90;99.90;;;;;;5076161;28;20047;-88
2024/01/05 03:09:50;;;;;;;12.00;4.43;;;4.90;99.90;;;;;;5075904;28;20040;-88
2024/01/05 03:12:19;;;;;;;11.32;3.53;;;4.90;99.90;;;;;;5075652;28;20411;-88
2024/01/05 03:14:44;;;;;;;9.75;3.75;;;4.90;99.90;;;;;;5075861;28;20039;-88
2024/01/05 03:17:10;;;;;;;9.40;3.35;;;4.90;99.90;;;;;;5076064;28;20469;-89
2024/01/05 03:19:36;;;;;;;8.80;3.42;;;4.90;99.90;;;;;;5075691;28;20040;-88
2024/01/05 03:22:02;;;;;;;7.57;3.35;;;5.00;99.90;;;;;;5092714;28;20058;-88
2024/01/05 03:24:28;;;;;;;6.88;2.55;;;4.90;99.90;;;;;;5075517;28;20040;-88
2024/01/05 03:26:53;;;;;;;6.95;2.80;;;4.90;99.90;;;;;;5075951;28;20067;-89
2024/01/05 03:29:19;;;;;;;7.22;2.42;;;4.90;99.90;;;;;;5075480;28;20616;-88
2024/01/05 03:31:45;;;;;;;8.13;3.17;;;4.90;99.90;;;;;;5075473;28;20028;-89
2024/01/05 03:34:12;;;;;;;10.77;3.67;;;5.00;99.90;;;;;;5075465;28;20063;-88
2024/01/05 03:36:38;;;;;;;11.32;4.20;;;4.90;99.90;;;;;;5075689;28;20116;-88
2024/01/05 03:39:04;;;;;;;10.50;4.07;;;5.00;99.90;;;;;;5075402;28;20076;-88
2024/01/05 03:41:29;;;;;;;10.68;4.43;;;5.00;99.90;;;;;;5074264;28;20101;-88
2024/01/05 03:43:55;;;;;;;9.88;3.88;;;5.00;99.90;;;;;;5075010;28;20042;-87
2024/01/05 03:46:20;;;;;;;8.88;3.30;;;5.00;99.90;;;;;;5074964;28;20457;-89
2024/01/05 03:48:46;;;;;;;10.98;4.28;;;5.00;99.90;;;;;;5062305;28;20059;-88
2024/01/05 03:51:12;;;;;;;10.77;4.30;;;5.00;99.90;;;;;;5071572;28;20126;-88
2024/01/05 03:53:38;;;;;;;8.40;4.13;;;4.90;99.90;;;;;;5091777;28;20032;-88
2024/01/05 03:56:04;;;;;;;7.57;3.30;;;5.00;99.90;;;;;;5092099;28;20081;-88
2024/01/05 03:58:29;;;;;;;8.23;3.30;;;5.00;99.90;;;;;;5075368;28;20040;-89
2024/01/05 04:00:56;;;;;;;7.85;2.47;;;5.00;99.90;;;;;;5091725;28;20517;-89
2024/01/05 04:03:22;;;;;;;5.95;2.35;;;5.00;99.90;;;;;;5074990;28;20462;-88
2024/01/05 04:05:47;;;;;;;8.48;3.50;;;5.00;99.90;;;;;;5074859;28;20067;-88
2024/01/05 04:08:13;;;;;;;11.23;4.80;;;4.90;99.90;;;;;;5091890;28;20451;-88
2024/01/05 04:10:39;;;;;;;9.77;4.43;;;5.00;99.90;;;;;;5074947;28;20044;-88
2024/01/05 04:13:05;;;;;;;11.98;4.05;;;5.00;99.90;;;;;;5059439;28;20041;-89
2024/01/05 04:15:38;;;;;;;10.90;4.30;;;5.00;99.90;;;;;;5057120;28;20101;-89
2024/01/05 04:18:04;;;;;;;8.70;3.75;;;5.00;99.90;;;;;;5074813;28;20084;-89
2024/01/05 04:20:29;;;;;;;9.35;3.80;;;5.00;99.90;;;;;;5064293;28;20087;-89
2024/01/05 04:22:55;;;;;;;11.88;4.28;;;5.00;99.90;;;;;;5063198;28;20546;-89
2024/01/05 04:25:21;;;;;;;10.48;4.70;;;5.00;99.90;;;;;;5063612;28;20036;-89
2024/01/05 04:27:47;;;;;;;8.95;3.83;;;5.00;99.90;;;;;;5074426;28;20044;-90
2024/01/05 04:30:12;;;;;;;9.90;4.28;;;5.00;99.90;;;;;;5074440;28;20059;-89
2024/01/05 04:32:38;;;;;;;10.35;3.88;;;5.00;99.90;;;;;;5074482;28;20036;-88
2024/01/05 04:35:04;;;;;;;8.13;3.28;;;5.00;99.90;;;;;;5074309;28;20122;-89
2024/01/05 04:37:30;;;;;;;10.85;4.50;;;5.10;99.90;;;;;;5074252;28;20028;-89
2024/01/05 04:39:55;;;;;;;10.38;4.82;;;5.10;99.90;;;;;;5074455;28;20043;-90
2024/01/05 04:42:22;;;;;;;11.63;4.68;;;5.10;99.90;;;;;;5074036;28;20040;-89
2024/01/05 04:44:49;;;;;;;11.18;4.38;;;5.10;99.90;;;;;;5073703;28;20070;-89
2024/01/05 04:47:15;;;;;;;11.35;4.88;;;5.10;99.90;;;;;;5090055;28;20048;-90
2024/01/05 04:49:41;;;;;;;10.73;3.92;;;5.10;99.90;;;;;;5073735;28;20392;-89
2024/01/05 04:52:06;;;;;;;8.20;3.80;;;5.10;99.90;;;;;;5073905;28;20032;-89
2024/01/05 04:54:32;;;;;;;10.88;4.55;;;5.20;99.90;;;;;;5090731;28;20709;-89
2024/01/05 04:56:58;;;;;;;9.23;4.13;;;5.20;99.90;;;;;;5073890;28;20464;-89
2024/01/05 04:59:24;;;;;;;11.90;4.95;;;5.10;99.90;;;;;;5090629;28;20028;-89
2024/01/05 05:01:50;;;;;;;12.90;4.30;;;5.20;99.90;;;;;;5073870;28;20127;-89
2024/01/05 05:04:17;;;;;;;9.02;4.50;;;5.20;99.90;;;;;;5089449;28;20071;-89
2024/01/05 05:06:44;;;;;;;10.85;4.53;;;5.10;99.90;;;;;;5053720;28;20047;-89
2024/01/05 05:09:10;;;;;;;10.57;5.18;;;5.20;99.90;;;;;;5053715;28;20044;-89
2024/01/05 05:11:38;;;;;;;10.88;4.57;;;5.20;99.90;;;;;;5053456;28;20083;-88
2024/01/05 05:14:03;;;;;;;10.93;4.13;;;5.20;99.90;;;;;;5068648;28;20036;-89
2024/01/05 05:16:29;;;;;;;8.48;3.20;;;5.20;99.90;;;;;;5073795;28;20158;-89
2024/01/05 05:18:55;;;;;;;12.10;5.18;;;5.20;99.90;;;;;;5073698;28;20058;-89
2024/01/05 05:21:20;;;;;;;8.60;4.30;;;5.20;99.90;;;;;;5073461;28;20524;-89
2024/01/05 05:23:46;;;;;;;9.93;4.18;;;5.20;99.90;;;;;;5073894;28;20051;-89
2024/01/05 05:26:12;;;;;;;11.00;4.47;;;5.20;99.90;;;;;;5091811;28;20066;-87
2024/01/05 05:28:37;;;;;;;10.70;4.85;;;5.20;99.90;;;;;;5080040;28;20040;-88
2024/01/05 05:31:03;;;;;;;10.32;4.57;;;5.20;99.90;;;;;;5073589;28;20094;-88
2024/01/05 05:33:28;;;;;;;11.27;4.85;;;5.20;99.90;;;;;;5072274;28;20318;-87
2024/01/05 05:35:54;;;;;;;11.30;5.90;;;5.30;99.90;;;;;;5089224;28;20036;-88
2024/01/05 05:38:20;;;;;;;11.93;5.07;;;5.30;99.90;;;;;;5072099;28;20063;-88
2024/01/05 05:40:46;;;;;;;10.27;5.03;;;5.30;99.90;;;;;;5089228;28;20109;-88
2024/01/05 05:43:11;;;;;;;11.93;5.57;;;5.30;99.90;;;;;;5072141;28;20119;-88
2024/01/05 05:45:37;;;;;;;14.07;5.43;;;5.30;99.90;;;;;;5089619;28;20449;-88
2024/01/05 05:48:04;;;;;;;11.90;5.07;;;5.40;99.90;;;;;;5073265;28;20040;-88
2024/01/05 05:50:30;;;;;;;9.32;4.28;;;5.30;99.90;;;;;;5089907;28;20611;-87
2024/01/05 05:52:55;;;;;;;11.98;5.50;;;5.40;99.90;;;;;;5067118;28;20494;-88
2024/01/05 05:55:21;;;;;;;13.02;6.63;;;5.40;99.90;;;;;;5072645;28;20119;-88
2024/01/05 05:57:47;;;;;;;11.43;5.47;;;5.40;99.90;;;;;;5073118;28;20036;-88
2024/01/05 06:00:13;;;;;;;12.77;5.43;;;5.40;99.90;;;;;;5072975;28;20036;-87
2024/01/05 06:02:38;;;;;;;11.05;4.63;;;5.40;99.90;;;;;;5072858;28;20043;-88
2024/01/05 06:05:05;;;;;;;13.50;4.68;;;5.40;99.90;;;;;;5072319;28;20079;-88
2024/01/05 06:07:31;;;;;;;12.90;6.20;;;5.40;99.90;;;;;;5072868;28;20429;-88
2024/01/05 06:09:57;;;;;;;13.20;5.32;;;5.50;99.90;;;;;;5072780;28;20048;-88
2024/01/05 06:12:23;;;;;;;12.57;5.28;;;5.40;99.90;;;;;;5072852;28;20533;-89
2024/01/05 06:14:48;;;;;;;12.85;5.47;;;5.50;99.90;;;;;;5072595;28;20040;-88
2024/01/05 06:17:14;;;;;;;13.63;5.60;;;5.50;99.90;;;;;;5072473;28;20522;-89
2024/01/05 06:19:40;;;;;;;12.57;5.10;;;5.50;99.90;;;;;;5073084;28;20036;-88
2024/01/05 06:22:05;;;;;;;11.20;5.93;;;5.50;99.90;;;;;;5072932;28;20127;-87
2024/01/05 06:24:31;;;;;;;15.00;5.90;;;5.50;99.90;;;;;;5072226;28;20131;-88
2024/01/05 06:26:57;;;;;;;11.45;5.10;;;5.50;99.90;;;;;;5072810;28;20047;-89
2024/01/05 06:29:22;;;;;;;13.65;6.30;;;5.60;99.90;;;;;;5072910;28;20063;-88
2024/01/05 06:31:48;;;;;;;11.07;5.13;;;5.50;99.90;;;;;;5072606;28;20036;-87
2024/01/05 06:34:13;;;;;;;14.30;5.95;;;5.50;99.90;;;;;;5072240;28;20032;-88
2024/01/05 06:36:39;;;;;;;14.38;7.80;;;5.60;99.90;;;;;;5072731;28;20077;-88
2024/01/05 06:39:05;;;;;;;14.98;8.18;;;5.60;99.90;;;;;;5083997;28;20037;-88
2024/01/05 06:41:31;;;;;;;13.80;7.18;;;5.60;99.90;;;;;;5073392;28;20048;-88
2024/01/05 06:43:57;;;;;;;12.75;6.30;;;5.60;99.90;;;;;;5066140;28;20044;-88
2024/01/05 06:46:23;;;;;;;13.07;6.35;;;5.60;99.90;;;;;;5079241;28;20074;-88
2024/01/05 06:48:49;;;;;;;10.73;5.40;;;5.60;99.90;;;;;;5072573;28;20047;-88
2024/01/05 06:51:15;;;;;;;14.77;6.50;;;5.60;99.90;;;;;;5068190;28;20032;-89
2024/01/05 06:53:40;;;;;;;16.70;7.80;;;5.60;99.90;;;;;;5072087;28;20074;-88
2024/01/05 06:56:08;;;;;;;14.32;7.07;;;5.60;99.90;;;;;;5072720;28;20051;-88
2024/01/05 06:58:34;;;;;;;13.82;6.22;;;5.60;99.90;;;;;;5089492;28;20056;-89
2024/01/05 07:01:01;;;;;;;14.32;6.50;;;5.70;99.90;;;;;;5072841;28;20043;-89
2024/01/05 07:03:27;;;;;;;13.48;6.38;;;5.70;99.90;;;;;;5071704;28;20510;-89
2024/01/05 07:05:52;;;;;;;14.35;7.43;;;5.70;99.90;;;;;;5057650;28;20131;-89
2024/01/05 07:08:18;;;;;;;14.77;7.00;;;5.70;99.90;;;;;;5051543;28;20047;-88
2024/01/05 07:10:44;;;;;;;16.05;7.25;;;5.70;99.90;;;;;;5052318;28;20083;-88
2024/01/05 07:13:10;;;;;;;15.48;6.53;;;5.70;99.90;;;;;;5052068;28;20039;-88
2024/01/05 07:15:35;;;;;;;14.68;6.03;;;5.70;99.90;;;;;;5071804;28;20043;-89
2024/01/05 07:18:01;;;;;;;15.95;7.05;;;5.70;99.90;;;;;;5074881;28;20605;-88
2024/01/05 07:20:27;;;;;;;18.23;8.32;;;5.80;99.90;;;;;;5075116;28;20036;-88
2024/01/05 07:22:52;;;;;;;15.85;7.93;;;5.80;99.90;;;;;;5075245;28;20062;-88
2024/01/05 07:25:18;;;;;;;13.50;7.70;;;5.80;99.90;;;;;;5075509;28;20036;-88
2024/01/05 07:27:44;;;;;;;13.98;7.25;;;5.80;99.90;;;;;;5075782;28;20407;-88
2024/01/05 07:30:10;;;;;;;14.55;6.03;;;5.80;99.90;;;;;;5091924;28;20130;-89
2024/01/05 07:32:37;;;;;;;13.02;6.20;;;5.90;99.90;;;;;;5084804;28;20043;-89
2024/01/05 07:35:04;;;;;;;17.05;8.88;;;5.90;99.90;;;;;;5078889;28;20043;-89
2024/01/05 07:37:29;;;;;;;16.02;7.30;;;5.90;99.90;;;;;;5073780;28;20499;-89
2024/01/05 07:39:55;;;;;;;10.07;4.55;;;5.90;99.90;;;;;;5054834;28;20031;-89
2024/01/05 07:42:21;;;;;;;18.73;6.65;;;5.90;99.90;;;;;;5074966;28;20036;-89
2024/01/05 07:44:46;;;;;;;13.45;6.13;;;6.00;99.90;;;;;;5069507;28;20040;-89
2024/01/05 07:47:12;;;;;;;11.77;5.43;;;6.00;99.90;;;;;;5072224;28;20388;-89
2024/01/05 07:49:39;;;;;;;10.40;4.45;;;6.00;99.90;;;;;;5071259;28;20047;-89
2024/01/05 07:52:05;;;;;;;14.75;6.25;;;6.00;99.90;;;;;;5072319;28;20491;-90
2024/01/05 07:54:31;;;;;;;16.52;5.25;;;6.00;99.90;;;;;;5072891;28;20090;-89
2024/01/05 07:56:57;;;;;;;14.10;7.43;;;6.00;99.90;;;;;;5068467;28;20471;-89
2024/01/05 07:59:22;;;;;;;14.50;6.60;;;6.00;99.90;;;;;;5080980;28;20046;-89
2024/01/05 08:01:54;;;;;;;14.40;7.30;;;6.10;99.90;;;;;;5075625;28;20405;-89
2024/01/05 08:04:19;;;;;;;13.25;6.22;;;6.10;99.90;;;;;;5074764;28;20044;-89
2024/01/05 08:06:47;;;;;;;11.68;6.22;;;6.10;99.90;;;;;;5092242;28;20043;-89
2024/01/05 08:09:13;;;;;;;12.70;6.30;;;6.10;99.90;;;;;;5093384;28;20036;-88
2024/01/05 08:11:39;;;;;;;16.33;7.18;;;6.20;99.90;;;;;;5075034;28;20161;-88
2024/01/05 08:14:07;;;;;;;16.00;6.78;;;6.20;99.90;;;;;;5067018;28;20040;-88
2024/01/05 08:16:33;;;;;;;17.20;6.75;;;6.30;99.90;;;;;;5082837;28;20055;-89
2024/01/05 08:18:59;;;;;;;12.25;5.85;;;6.20;99.90;;;;;;5074886;28;20051;-89
2024/01/05 08:21:25;;;;;;;12.77;6.07;;;6.30;99.90;;;;;;5074888;28;20040;-89
2024/01/05 08:23:51;;;;;;;13.45;5.72;;;6.30;99.90;;;;;;5086262;28;20122;-89
2024/01/05 08:26:18;;;;;;;15.52;6.43;;;6.40;99.90;;;;;;5080736;28;20135;-86
2024/01/05 08:28:44;;;;;;;14.20;6.03;;;6.40;99.90;;;;;;5094089;28;20411;-89
2024/01/05 08:31:09;;;;;;;14.02;5.03;;;6.40;99.90;;;;;;5072133;28;20043;-88
2024/01/05 08:33:35;;;;;;;17.58;6.72;;;6.50;99.90;;;;;;5064592;28;20036;-89
2024/01/05 08:36:01;;;;;;;12.10;5.45;;;6.50;99.90;;;;;;5073570;28;20039;-89
2024/01/05 08:38:27;;;;;;;11.82;4.30;;;6.50;99.90;;;;;;5092840;28;20051;-89
2024/01/05 08:40:52;;;;;;;17.92;7.03;;;6.50;99.90;;;;;;5070659;28;20052;-89
2024/01/05 08:43:19;;;;;;;14.98;6.00;;;6.60;99.90;;;;;;5053752;28;20037;-88
2024/01/05 08:45:45;;;;;;;15.30;5.40;;;6.60;99.90;;;;;;5058364;28;20410;-89
2024/01/05 08:48:11;;;;;;;12.05;5.15;;;6.60;99.90;;;;;;5082988;28;20037;-89
2024/01/05 08:50:37;;;;;;;12.82;5.55;;;6.70;99.90;;;;;;5065094;28;20125;-89
2024/01/05 08:53:03;;;;;;;17.42;6.18;;;6.70;99.90;;;;;;5066824;28;20044;-89
2024/01/05 08:55:29;;;;;;;11.18;5.15;;;6.70;99.90;;;;;;5061960;28;20035;-89
2024/01/05 08:57:55;;;;;;;13.10;5.30;;;6.70;99.90;;;;;;5060056;28;20032;-89
2024/01/05 09:00:21;;;;;;;14.70;5.28;;;6.80;99.90;;;;;;5090566;28;20094;-89
2024/01/05 09:02:47;;;;;;;11.25;5.05;;;6.80;99.90;;;;;;5074172;28;20047;-90
2024/01/05 09:05:13;;;;;;;9.95;3.65;;;6.80;99.90;;;;;;5090438;28;20127;-90
2024/01/05 09:07:38;;;;;;;12.80;6.07;;;6.90;99.90;;;;;;5073936;28;20093;-90
2024/01/05 09:10:04;;;;;;;13.00;4.07;;;6.90;99.90;;;;;;5090794;28;20533;-90
2024/01/05 09:12:30;;;;;;;13.93;5.03;;;6.90;99.90;;;;;;5063141;28;20042;-90
2024/01/05 09:14:56;;;;;;;8.95;3.53;;;6.90;99.90;;;;;;5058605;28;20036;-87
2024/01/05 09:17:22;;;;;;;11.02;4.13;;;6.90;99.90;;;;;;5089600;28;20110;-89
2024/01/05 09:19:48;;;;;;;11.10;3.72;;;7.00;99.90;;;;;;5062684;28;20039;-90
2024/01/05 09:22:13;;;;;;;9.55;3.13;;;7.00;99.90;;;;;;5067246;28;20059;-89
2024/01/05 09:24:39;;;;;;;13.82;4.70;;;7.00;99.90;;;;;;5073206;28;20075;-89
2024/01/05 09:27:05;;;;;;;15.57;3.75;;;7.00;99.90;;;;;;5066355;28;20431;-89
2024/01/05 09:29:31;;;;;;;10.73;4.03;;;7.10;99.90;;;;;;5064027;28;20039;-89
2024/01/05 09:31:57;;;;;;;14.85;4.72;;;7.10;99.90;;;;;;5073233;28;20071;-89
2024/01/05 09:34:22;;;;;;;12.23;3.67;;;7.10;99.90;;;;;;5073052;28;20048;-89
2024/01/05 09:36:49;;;;;;;10.98;3.80;;;7.10;99.90;;;;;;5060114;28;20035;-89
2024/01/05 09:39:15;;;;;;;8.02;2.80;;;7.20;99.90;;;;;;5069633;28;20043;-89
2024/01/05 09:41:41;;;;;;;7.75;2.83;;;7.20;99.90;;;;;;5090635;28;20455;-89
2024/01/05 09:44:10;;;;;;;9.32;3.10;;;7.20;99.90;;;;;;5073137;28;20044;-89
2024/01/05 09:46:39;;;;;;;10.32;2.45;;;7.20;99.90;;;;;;5071196;28;20094;-89
2024/01/05 09:49:06;;;;;;;9.60;2.85;;;7.20;99.90;;;;;;5060376;28;20089;-89
2024/01/05 09:51:32;;;;;;;9.30;3.65;;;7.30;99.90;;;;;;5090196;28;20048;-89
2024/01/05 09:53:58;;;;;;;17.98;4.00;;;7.30;99.90;;;;;;5089631;28;20123;-89
2024/01/05 09:56:26;;;;;;;9.40;3.15;;;7.30;99.90;;;;;;5073139;28;20032;-89
2024/01/05 09:58:53;;;;;;;8.40;2.55;;;7.30;99.90;;;;;;5072725;28;20105;-89
2024/01/05 10:01:27;;;;;;;8.80;3.78;;;7.40;99.90;;;;;;5056003;28;20033;-89
2024/01/05 10:03:58;;;;;;;7.32;2.28;;;7.40;99.90;;;;;;5046894;28;20515;-89
2024/01/05 10:06:25;;;;;;;6.05;1.73;;;7.40;99.90;;;;;;5069767;28;20089;-88
2024/01/05 10:08:55;;;;;;;8.32;1.77;;;7.40;99.90;;;;;;5070787;28;20090;-89
2024/01/05 10:11:32;;;;;;;4.10;1.27;;;7.50;99.90;;;;;;5048347;28;20043;-89
2024/01/05 10:14:03;;;;;;;6.80;1.40;;;7.50;99.90;;;;;;5071286;28;20043;-89
2024/01/05 10:16:39;;;;;;;6.20;1.85;;;7.50;99.90;;;;;;5075712;28;20128;-89
2024/01/05 10:19:15;;;;;;;9.98;1.95;;;7.60;99.90;;;;;;5052157;28;20480;-89
2024/01/05 10:21:47;;;;;;;6.47;1.83;;;7.60;99.90;;;;;;5071512;28;20032;-89
2024/01/05 10:24:29;;;;;;;4.18;1.17;;;7.60;99.90;;;;;;5056645;28;20470;-89
2024/01/05 10:27:02;;;;;;;5.18;1.40;;;7.60;99.90;;;;;;5069324;28;20047;-89
2024/01/05 10:29:28;;;;;;;9.77;1.63;;;7.60;99.90;;;;;;5065848;28;20119;-89
2024/01/05 10:31:54;;;;;;;6.00;2.00;;;7.70;99.90;;;;;;5072616;28;20503;-89
2024/01/05 10:34:19;;;;;;;6.53;1.25;;;7.70;99.90;;;;;;5072034;28;20047;-90
2024/01/05 10:36:45;;;;;;;3.78;1.38;;;7.70;99.90;;;;;;5073595;28;20409;-90
2024/01/05 10:39:11;;;;;;;4.28;1.05;;;7.70;99.90;;;;;;5071977;28;20484;-90
2024/01/05 10:41:37;;;;;;;3.22;1.25;;;7.70;99.90;;;;;;5072191;28;20080;-89
2024/01/05 10:44:04;;;;;;;2.08;1.08;;;7.70;99.90;;;;;;5072278;28;20098;-89
2024/01/05 10:46:31;;;;;;;7.82;1.20;;;7.70;99.90;;;;;;5089655;28;20052;-89
2024/01/05 10:48:57;;;;;;;3.28;0.70;;;7.80;99.90;;;;;;5072451;28;20040;-90
2024/01/05 10:51:26;;;;;;;5.63;0.95;;;7.80;99.90;;;;;;5091018;28;20044;-90
2024/01/05 10:53:53;;;;;;;4.50;1.00;;;7.80;99.90;;;;;;5073507;28;20439;-90
2024/01/05 10:56:19;;;;;;;4.43;0.77;;;7.80;99.90;;;;;;5053955;28;20072;-90
2024/01/05 10:58:52;;;;;;;1.75;0.60;;;7.80;99.90;;;;;;5085701;28;20044;-90
2024/01/05 11:01:19;;;;;;;4.43;0.80;;;7.80;99.90;;;;;;5075902;28;20116;-89
2024/01/05 11:03:48;;;;;;;1.20;0.52;;;7.80;99.90;;;;;;5071561;28;20040;-89
2024/01/05 11:06:15;;;;;;;0.73;0.60;;;7.80;99.90;;;;;;5082724;28;20111;-89
2024/01/05 11:08:56;;;;;;;3.13;0.63;;;7.80;99.90;;;;;;5060067;28;20048;-90
2024/01/05 11:11:42;;;;;;;2.08;0.70;;;7.80;99.90;;;;;;5071941;28;20036;-89
2024/01/05 11:14:33;;;;;;;1.15;0.50;;;7.80;99.90;;;;;;5054307;28;20028;-89
2024/01/05 11:17:06;;;;;;;3.70;0.70;;;7.80;99.90;;;;;;5041210;28;20040;-89
2024/01/05 11:19:56;;;;;;;1.65;0.50;;;7.80;99.90;;;;;;5050489;28;20033;-89
2024/01/05 11:22:28;;;;;;;2.05;0.50;;;7.80;99.90;;;;;;5053217;28;20037;-89
2024/01/05 11:24:55;;;;;;;0.70;0.22;;;7.80;99.90;;;;;;5053662;28;20064;-89
2024/01/05 11:27:28;;;;;;;1.95;0.47;;;7.80;99.90;;;;;;5054719;28;20041;-89
2024/01/05 11:29:54;;;;;;;3.33;0.38;;;7.80;99.90;;;;;;5054076;28;20086;-89
2024/01/05 11:32:42;;;;;;;0.30;0.30;;;7.80;99.90;;;;;;5048563;28;20480;-90
2024/01/05 11:35:16;;;;;;;0.93;0.32;;;7.80;99.90;;;;;;5074117;28;20071;-90
2024/01/05 11:37:43;;;;;;;0.38;0.38;;;7.80;99.90;;;;;;5065324;28;20048;-89
2024/01/05 11:40:29;;;;;;;0.82;0.45;;;7.80;99.90;;;;;;5054873;28;20407;-90
2024/01/05 11:42:57;;;;;;;1.83;0.98;;;7.80;99.90;;;;;;5055534;28;20091;-90
2024/01/05 11:45:41;;;;;;;1.17;0.45;;;7.80;99.90;;;;;;5091012;28;20036;-89
2024/01/05 11:48:07;;;;;;;0.65;0.40;;;7.80;99.90;;;;;;5075637;28;20398;-90
2024/01/05 11:50:34;;;;;;;0.55;0.38;;;7.80;99.90;;;;;;5075355;28;20507;-90
2024/01/05 11:53:12;;;;;;;1.95;0.40;;;7.80;99.90;;;;;;5075297;28;20051;-90
2024/01/05 11:55:42;;;;;;;1.65;0.80;;;7.80;99.90;;;;;;5075083;28;20503;-88
2024/01/05 11:58:15;;;;;;;0.32;0.30;;;7.80;99.90;;;;;;5076365;28;20041;-90
2024/01/05 12:00:42;;;;;;;;;;;7.80;99.90;;;;;;5055793;28;20032;-89
2024/01/05 12:03:08;;;;;;;0.40;0.32;;;7.80;99.90;;;;;;5069799;28;19916;-90
2024/01/05 12:05:33;;;;;;;0.55;0.30;;;7.80;99.90;;;;;;5074753;28;20039;-90
2024/01/05 12:08:00;;;;;;;1.67;0.40;;;7.80;99.90;;;;;;5074996;28;20507;-90
2024/01/05 12:10:29;;;;;;;1.00;0.30;;;7.80;99.90;;;;;;5066389;28;20403;-90
2024/01/05 12:12:55;;;;;;;0.40;0.40;;;7.70;99.90;;;;;;5074427;28;20048;-90
2024/01/05 12:15:24;;;;;;;0.70;0.50;;;7.70;99.90;;;;;;5074381;28;20123;-90
2024/01/05 12:18:05;;;;;;;1.20;0.50;;;7.70;99.90;;;;;;5061552;28;20040;-90
2024/01/05 12:20:31;;;;;;;1.02;0.38;;;7.70;99.90;;;;;;5054804;28;20123;-89
2024/01/05 12:22:57;;;;;;;2.58;0.70;;;7.70;99.90;;;;;;5060410;28;20526;-90
2024/01/05 12:25:22;;;;;;;3.25;0.73;;;7.70;99.90;;;;;;5091369;28;20040;-90
2024/01/05 12:27:48;;;;;;;0.90;0.60;;;7.70;99.90;;;;;;5078187;28;20052;-90
2024/01/05 12:30:14;;;;;;;1.98;0.52;;;7.60;99.90;;;;;;5071311;28;20085;-90
2024/01/05 12:32:41;;;;;;;1.25;0.60;;;7.60;99.90;;;;;;5070831;28;20045;-90
2024/01/05 12:35:07;;;;;;;0.65;0.52;;;7.60;99.90;;;;;;5062223;28;20066;-90
2024/01/05 12:37:32;;;;;;;0.85;0.52;;;7.60;99.90;;;;;;5065598;28;20468;-90
2024/01/05 12:40:11;;;;;;;0.47;0.40;;;7.60;99.90;;;;;;5066959;28;20047;-89
2024/01/05 12:42:38;;;;;;;1.10;0.50;;;7.60;99.90;;;;;;5068370;28;20053;-90
2024/01/05 12:45:08;;;;;;;1.15;0.50;;;7.60;99.90;;;;;;5073076;28;20040;-90
2024/01/05 12:47:35;;;;;;;2.10;0.50;;;7.60;99.90;;;;;;5069171;28;20495;-91